createdAt,value
2024-03-16T00:01:29.081Z,8.88
2024-03-16T00:04:29.139Z,8.86
2024-03-16T00:07:29.082Z,8.83
2024-03-16T00:10:29.085Z,8.87
2024-03-16T00:13:29.093Z,8.86
2024-03-16T00:16:29.098Z,8.79
2024-03-16T00:19:29.143Z,8.85
2024-03-16T00:22:29.107Z,8.84
2024-03-16T00:25:29.130Z,8.88
2024-03-16T00:28:29.132Z,8.87
2024-03-16T00:31:29.151Z,8.86
2024-03-16T00:34:29.175Z,8.89
2024-03-16T00:37:29.165Z,8.88
2024-03-16T00:40:29.165Z,8.86
2024-03-16T00:43:29.188Z,8.92
2024-03-16T00:46:29.179Z,8.9
2024-03-16T00:49:29.183Z,8.9
2024-03-16T00:52:29.205Z,8.88
2024-03-16T00:55:29.591Z,8.86
2024-03-16T00:58:29.211Z,8.85
2024-03-16T01:01:29.398Z,8.79
2024-03-16T01:04:29.226Z,8.77
2024-03-16T01:07:29.233Z,8.77
2024-03-16T01:10:29.258Z,8.75
2024-03-16T01:13:29.253Z,8.74
2024-03-16T01:16:29.262Z,8.75
2024-03-16T01:19:29.277Z,8.72
2024-03-16T01:22:29.276Z,8.68
2024-03-16T01:25:29.294Z,8.63
2024-03-16T01:28:29.280Z,8.64
2024-03-16T01:31:29.294Z,8.64
2024-03-16T01:34:29.301Z,8.63
2024-03-16T01:37:29.320Z,8.63
2024-03-16T01:40:29.315Z,8.67
2024-03-16T01:43:29.334Z,8.65
2024-03-16T01:46:29.341Z,8.7
2024-03-16T01:49:29.353Z,8.67
2024-03-16T01:52:29.375Z,8.67
2024-03-16T01:55:29.375Z,8.66
2024-03-16T01:58:29.366Z,8.66
2024-03-16T02:01:29.494Z,8.68
2024-03-16T02:04:29.399Z,8.69
2024-03-16T02:07:29.432Z,8.64
2024-03-16T02:10:29.419Z,8.69
2024-03-16T02:13:29.421Z,8.68
2024-03-16T02:16:29.423Z,8.67
2024-03-16T02:19:29.433Z,8.66
2024-03-16T02:22:29.451Z,8.65
2024-03-16T02:25:29.455Z,8.65
2024-03-16T02:28:29.459Z,8.59
2024-03-16T02:31:29.472Z,8.6
2024-03-16T02:34:29.474Z,8.55
2024-03-16T02:37:29.492Z,8.54
2024-03-16T02:40:29.494Z,8.54
2024-03-16T02:43:29.490Z,8.54
2024-03-16T02:46:29.596Z,8.58
2024-03-16T02:49:29.488Z,8.56
2024-03-16T02:52:29.526Z,8.61
2024-03-16T02:55:29.516Z,8.59
2024-03-16T02:58:29.507Z,8.57
2024-03-16T03:01:29.566Z,8.52
2024-03-16T03:04:29.504Z,8.5
2024-03-16T03:07:29.521Z,8.42
2024-03-16T03:10:29.508Z,8.44
2024-03-16T03:13:29.516Z,8.48
2024-03-16T03:16:29.630Z,8.46
2024-03-16T03:19:29.525Z,8.46
2024-03-16T03:22:29.535Z,8.41
2024-03-16T03:25:29.670Z,8.42
2024-03-16T03:28:29.528Z,8.37
2024-03-16T03:31:29.530Z,8.39
2024-03-16T03:34:29.531Z,8.38
2024-03-16T03:37:29.539Z,8.38
2024-03-16T03:40:29.544Z,8.39
2024-03-16T03:43:29.532Z,8.44
2024-03-16T03:46:29.534Z,8.43
2024-03-16T03:49:29.538Z,8.39
2024-03-16T03:52:29.547Z,8.38
2024-03-16T03:55:29.551Z,8.38
2024-03-16T03:58:29.550Z,8.33
2024-03-16T04:01:29.597Z,8.33
2024-03-16T04:04:29.548Z,8.33
2024-03-16T04:07:29.563Z,8.28
2024-03-16T04:10:29.551Z,8.29
2024-03-16T04:13:29.550Z,8.34
2024-03-16T04:16:29.559Z,8.33
2024-03-16T04:19:29.556Z,8.26
2024-03-16T04:22:29.576Z,8.27
2024-03-16T04:25:29.565Z,8.18
2024-03-16T04:28:29.568Z,8.21
2024-03-16T04:31:29.583Z,8.23
2024-03-16T04:34:29.570Z,8.24
2024-03-16T04:37:29.576Z,8.23
2024-03-16T04:40:29.568Z,8.33
2024-03-16T04:43:29.569Z,8.31
2024-03-16T04:46:29.573Z,8.34
2024-03-16T04:49:29.569Z,8.32
2024-03-16T04:52:29.585Z,8.36
2024-03-16T04:55:29.572Z,8.35
2024-03-16T04:58:29.574Z,8.33
2024-03-16T05:01:29.708Z,8.37
2024-03-16T05:04:29.569Z,8.35
2024-03-16T05:07:29.591Z,8.35
2024-03-16T05:10:29.576Z,8.34
2024-03-16T05:13:30.690Z,8.31
2024-03-16T05:16:29.577Z,8.3
2024-03-16T05:19:29.587Z,8.34
2024-03-16T05:22:29.592Z,8.33
2024-03-16T05:25:29.586Z,8.38
2024-03-16T05:28:29.630Z,8.37
2024-03-16T05:31:29.588Z,8.37
2024-03-16T05:34:29.597Z,8.42
2024-03-16T05:37:31.151Z,8.41
2024-03-16T05:40:29.618Z,8.41
2024-03-16T05:43:29.602Z,8.4
2024-03-16T05:46:29.602Z,8.4
2024-03-16T05:49:29.611Z,8.44
2024-03-16T05:52:29.628Z,8.44
2024-03-16T05:55:29.609Z,8.43
2024-03-16T05:58:29.796Z,8.43
2024-03-16T06:01:29.647Z,8.38
2024-03-16T06:04:29.616Z,8.38
2024-03-16T06:07:29.627Z,8.37
2024-03-16T06:10:29.620Z,8.41
2024-03-16T06:13:29.621Z,8.39
2024-03-16T06:16:29.626Z,8.46
2024-03-16T06:19:29.623Z,8.56
2024-03-16T06:22:29.634Z,8.58
2024-03-16T06:25:29.641Z,8.53
2024-03-16T06:28:29.643Z,8.5
2024-03-16T06:31:29.635Z,8.51
2024-03-16T06:34:29.645Z,8.46
2024-03-16T06:37:29.654Z,8.46
2024-03-16T06:40:29.639Z,8.47
2024-03-16T06:43:29.644Z,8.47
2024-03-16T06:46:29.640Z,8.46
2024-03-16T06:49:29.644Z,8.52
2024-03-16T06:52:29.668Z,8.51
2024-03-16T06:55:29.742Z,8.53
2024-03-16T06:58:29.660Z,8.52
2024-03-16T07:01:29.728Z,8.54
2024-03-16T07:04:29.657Z,8.57
2024-03-16T07:07:29.670Z,8.51
2024-03-16T07:10:29.725Z,8.52
2024-03-16T07:13:29.653Z,8.52
2024-03-16T07:16:29.671Z,8.54
2024-03-16T07:19:29.691Z,8.56
2024-03-16T07:22:29.682Z,8.62
2024-03-16T07:25:29.676Z,8.62
2024-03-16T07:28:30.223Z,8.6
2024-03-16T07:31:29.678Z,8.6
2024-03-16T07:34:29.691Z,8.59
2024-03-16T07:37:29.694Z,8.6
2024-03-16T07:40:29.770Z,8.62
2024-03-16T07:43:29.684Z,8.61
2024-03-16T07:46:29.687Z,8.67
2024-03-16T07:49:29.716Z,8.76
2024-03-16T07:52:29.707Z,8.79
2024-03-16T07:55:29.694Z,8.85
2024-03-16T07:58:29.727Z,8.86
2024-03-16T08:01:29.746Z,8.87
2024-03-16T08:04:29.698Z,8.94
2024-03-16T08:07:29.720Z,8.82
2024-03-16T08:10:29.896Z,8.95
2024-03-16T08:13:29.728Z,8.88
2024-03-16T08:16:29.714Z,8.94
2024-03-16T08:19:29.713Z,8.83
2024-03-16T08:22:29.762Z,8.89
2024-03-16T08:25:29.765Z,8.99
2024-03-16T08:28:29.870Z,9
2024-03-16T08:31:29.873Z,9.04
2024-03-16T08:34:29.796Z,9.03
2024-03-16T08:37:29.827Z,9.03
2024-03-16T08:40:29.881Z,9.02
2024-03-16T08:43:29.890Z,9.13
2024-03-16T08:46:29.894Z,9.05
2024-03-16T08:49:29.834Z,9.03
2024-03-16T08:52:29.880Z,8.94
2024-03-16T08:55:29.914Z,8.89
2024-03-16T08:58:29.820Z,8.91
2024-03-16T09:01:29.911Z,8.82
2024-03-16T09:04:29.754Z,8.69
2024-03-16T09:07:29.814Z,8.65
2024-03-16T09:10:29.848Z,8.65
2024-03-16T09:13:29.864Z,8.62
2024-03-16T09:16:29.770Z,8.62
2024-03-16T09:19:29.771Z,8.51
2024-03-16T09:22:29.784Z,8.6
2024-03-16T09:25:29.769Z,8.55
2024-03-16T09:28:29.780Z,8.49
2024-03-16T09:31:29.793Z,8.44
2024-03-16T09:34:29.780Z,8.32
2024-03-16T09:37:29.797Z,7.99
2024-03-16T09:40:29.786Z,7.74
2024-03-16T09:43:29.780Z,7.75
2024-03-16T09:46:29.780Z,7.75
2024-03-16T09:49:29.786Z,7.81
2024-03-16T09:52:29.813Z,7.92
2024-03-16T09:55:29.790Z,8.02
2024-03-16T09:58:29.790Z,8.07
2024-03-16T10:01:29.789Z,8.1
2024-03-16T10:04:29.793Z,8.23
2024-03-16T10:07:29.840Z,8.29
2024-03-16T10:10:29.823Z,8.28
2024-03-16T10:13:29.817Z,8.32
2024-03-16T10:16:29.816Z,8.27
2024-03-16T10:19:29.826Z,8.44
2024-03-16T10:22:29.845Z,8.44
2024-03-16T10:25:29.835Z,8.36
2024-03-16T10:28:29.837Z,8.14
2024-03-16T10:31:29.853Z,7.99
2024-03-16T10:34:29.848Z,7.91
2024-03-16T10:37:29.867Z,7.8
2024-03-16T10:40:29.857Z,7.77
2024-03-16T10:43:29.864Z,7.48
2024-03-16T10:46:29.881Z,7.36
2024-03-16T10:49:29.889Z,7.39
2024-03-16T10:52:29.904Z,7.48
2024-03-16T10:55:29.882Z,7.69
2024-03-16T10:58:30.075Z,7.59
2024-03-16T11:01:29.876Z,7.7
2024-03-16T11:04:29.889Z,7.74
2024-03-16T11:07:29.899Z,7.68
2024-03-16T11:10:29.887Z,7.24
2024-03-16T11:13:29.902Z,6.97
2024-03-16T11:16:29.943Z,6.87
2024-03-16T11:19:29.889Z,6.88
2024-03-16T11:22:29.904Z,6.89
2024-03-16T11:25:29.904Z,6.86
2024-03-16T11:28:29.894Z,6.95
2024-03-16T11:31:31.262Z,6.91
2024-03-16T11:34:30.063Z,6.89
2024-03-16T11:37:29.915Z,7.13
2024-03-16T11:40:29.902Z,6.89
2024-03-16T11:43:29.918Z,6.8
2024-03-16T11:46:29.914Z,6.76
2024-03-16T11:49:29.915Z,6.79
2024-03-16T11:52:29.937Z,6.75
2024-03-16T11:55:29.915Z,6.58
2024-03-16T11:58:29.993Z,6.63
2024-03-16T12:01:30.065Z,6.59
2024-03-16T12:04:29.951Z,6.67
2024-03-16T12:07:29.951Z,6.69
2024-03-16T12:10:29.949Z,6.78
2024-03-16T12:13:29.935Z,6.82
2024-03-16T12:16:29.926Z,6.87
2024-03-16T12:19:29.926Z,6.89
2024-03-16T12:22:29.942Z,6.87
2024-03-16T12:25:29.939Z,6.69
2024-03-16T12:28:29.936Z,6.67
2024-03-16T12:31:29.936Z,6.74
2024-03-16T12:34:29.949Z,6.75
2024-03-16T12:37:29.949Z,6.76
2024-03-16T12:40:29.970Z,6.67
2024-03-16T12:43:29.958Z,6.65
2024-03-16T12:46:29.959Z,6.68
2024-03-16T12:49:29.984Z,6.55
2024-03-16T12:52:29.958Z,6.58
2024-03-16T12:55:29.958Z,6.6
2024-03-16T12:58:29.952Z,6.72
2024-03-16T13:01:29.973Z,6.76
2024-03-16T13:04:29.962Z,6.57
2024-03-16T13:07:29.990Z,6.68
2024-03-16T13:10:29.972Z,6.63
2024-03-16T13:13:31.624Z,6.61
2024-03-16T13:16:29.973Z,6.67
2024-03-16T13:19:31.779Z,6.79
2024-03-16T13:22:29.986Z,6.76
2024-03-16T13:25:29.968Z,6.78
2024-03-16T13:28:29.976Z,6.72
2024-03-16T13:31:30.961Z,6.65
2024-03-16T13:34:29.980Z,6.63
2024-03-16T13:37:29.985Z,6.67
2024-03-16T13:40:29.989Z,6.61
2024-03-16T13:43:30.001Z,6.48
2024-03-16T13:46:29.990Z,6.54
2024-03-16T13:49:30.038Z,6.64
2024-03-16T13:52:29.993Z,6.65
2024-03-16T13:55:30.072Z,6.66
2024-03-16T13:58:29.996Z,6.66
2024-03-16T14:01:29.984Z,6.66
2024-03-16T14:04:29.984Z,6.65
2024-03-16T14:07:30.053Z,6.79
2024-03-16T14:10:30.061Z,6.64
2024-03-16T14:13:29.991Z,6.67
2024-03-16T14:16:29.986Z,6.67
2024-03-16T14:19:29.986Z,6.69
2024-03-16T14:22:30.024Z,6.77
2024-03-16T14:25:30.006Z,6.75
2024-03-16T14:28:29.996Z,6.63
2024-03-16T14:31:29.996Z,6.51
2024-03-16T14:34:30.004Z,6.49
2024-03-16T14:37:30.006Z,6.45
2024-03-16T14:40:30.012Z,6.44
2024-03-16T14:43:29.997Z,6.42
2024-03-16T14:46:30.004Z,6.48
2024-03-16T14:49:30.016Z,6.5
2024-03-16T14:52:30.014Z,6.41
2024-03-16T14:55:29.996Z,6.36
2024-03-16T14:58:30.001Z,6.43
2024-03-16T15:01:29.998Z,6.49
2024-03-16T15:04:30.018Z,6.35
2024-03-16T15:07:30.010Z,6.37
2024-03-16T15:10:30.001Z,6.33
2024-03-16T15:13:30.014Z,6.33
2024-03-16T15:16:30.002Z,6.35
2024-03-16T15:19:30.014Z,6.32
2024-03-16T15:22:30.020Z,6.31
2024-03-16T15:25:30.042Z,6.31
2024-03-16T15:28:30.009Z,6.32
2024-03-16T15:31:30.008Z,6.29
2024-03-16T15:34:30.019Z,6.25
2024-03-16T15:37:30.017Z,6.26
2024-03-16T15:40:30.018Z,6.2
2024-03-16T15:43:30.004Z,6.28
2024-03-16T15:46:30.010Z,6.24
2024-03-16T15:49:30.047Z,6.27
2024-03-16T15:52:30.023Z,6.31
2024-03-16T15:55:30.019Z,6.33
2024-03-16T15:58:30.018Z,6.43
2024-03-16T16:01:30.029Z,6.5
2024-03-16T16:04:30.023Z,6.13
2024-03-16T16:07:30.029Z,6.02
2024-03-16T16:10:30.025Z,6.07
2024-03-16T16:13:30.021Z,5.98
2024-03-16T16:16:30.030Z,6.03
2024-03-16T16:19:30.752Z,6.01
2024-03-16T16:22:30.038Z,6.01
2024-03-16T16:25:30.028Z,5.92
2024-03-16T16:28:30.029Z,5.9
2024-03-16T16:31:30.045Z,5.84
2024-03-16T16:34:30.047Z,5.81
2024-03-16T16:37:30.048Z,5.75
2024-03-16T16:40:30.030Z,5.77
2024-03-16T16:43:30.053Z,5.71
2024-03-16T16:46:30.036Z,5.75
2024-03-16T16:49:30.041Z,5.75
2024-03-16T16:52:30.065Z,5.79
2024-03-16T16:55:30.047Z,5.7
2024-03-16T16:58:30.044Z,5.67
2024-03-16T17:01:30.058Z,5.66
2024-03-16T17:04:30.048Z,5.64
2024-03-16T17:07:30.082Z,5.65
2024-03-16T17:10:30.057Z,5.67
2024-03-16T17:13:30.061Z,5.68
2024-03-16T17:16:30.062Z,5.69
2024-03-16T17:19:30.140Z,5.68
2024-03-16T17:22:30.075Z,5.7
2024-03-16T17:25:30.086Z,5.72
2024-03-16T17:28:30.081Z,5.7
2024-03-16T17:31:30.083Z,5.68
2024-03-16T17:34:30.101Z,5.68
2024-03-16T17:37:30.096Z,5.63
2024-03-16T17:40:30.096Z,5.64
2024-03-16T17:43:31.695Z,5.64
2024-03-16T17:46:30.090Z,5.62
2024-03-16T17:49:30.086Z,5.6
2024-03-16T17:52:30.112Z,5.59
2024-03-16T17:55:30.107Z,5.55
2024-03-16T17:58:30.093Z,5.55
2024-03-16T18:01:30.112Z,5.54
2024-03-16T18:04:30.096Z,5.56
2024-03-16T18:07:30.136Z,5.53
2024-03-16T18:10:30.105Z,5.53
2024-03-16T18:13:30.111Z,5.54
2024-03-16T18:16:37.018Z,5.52
2024-03-16T18:19:30.112Z,5.54
2024-03-16T18:22:30.126Z,5.57
2024-03-16T18:25:31.746Z,5.52
2024-03-16T18:28:30.108Z,5.56
2024-03-16T18:31:30.131Z,5.52
2024-03-16T18:34:30.111Z,5.51
2024-03-16T18:37:30.134Z,5.51
2024-03-16T18:40:30.127Z,5.54
2024-03-16T18:43:30.116Z,5.49
2024-03-16T18:46:30.116Z,5.49
2024-03-16T18:49:30.116Z,5.51
2024-03-16T18:52:30.127Z,5.5
2024-03-16T18:55:30.137Z,5.51
2024-03-16T18:58:30.131Z,5.46
2024-03-16T19:01:30.135Z,5.47
2024-03-16T19:04:30.139Z,5.47
2024-03-16T19:07:30.145Z,5.45
2024-03-16T19:10:30.141Z,5.45
2024-03-16T19:13:31.159Z,5.43
2024-03-16T19:16:30.147Z,5.41
2024-03-16T19:19:30.152Z,5.4
2024-03-16T19:22:30.165Z,5.38
2024-03-16T19:25:30.158Z,5.38
2024-03-16T19:28:30.153Z,5.36
2024-03-16T19:31:30.152Z,5.37
2024-03-16T19:34:30.171Z,5.38
2024-03-16T19:37:30.173Z,5.35
2024-03-16T19:40:30.168Z,5.36
2024-03-16T19:43:30.167Z,5.34
2024-03-16T19:46:30.169Z,5.36
2024-03-16T19:49:30.175Z,5.4
2024-03-16T19:52:30.185Z,5.36
2024-03-16T19:55:30.191Z,5.37
2024-03-16T19:58:32.339Z,5.37
2024-03-16T20:01:30.184Z,5.34
2024-03-16T20:04:30.188Z,5.31
2024-03-16T20:07:30.196Z,5.29
2024-03-16T20:10:30.200Z,5.29
2024-03-16T20:13:30.200Z,5.3
2024-03-16T20:16:30.209Z,5.29
2024-03-16T20:19:30.201Z,5.3
2024-03-16T20:22:30.214Z,5.25
2024-03-16T20:25:30.455Z,5.26
2024-03-16T20:28:30.213Z,5.23
2024-03-16T20:31:30.212Z,5.23
2024-03-16T20:34:30.218Z,5.23
2024-03-16T20:37:30.234Z,5.22
2024-03-16T20:40:30.227Z,5.22
2024-03-16T20:43:30.228Z,5.22
2024-03-16T20:46:30.234Z,5.22
2024-03-16T20:49:30.369Z,5.24
2024-03-16T20:52:30.257Z,5.2
2024-03-16T20:55:30.247Z,5.21
2024-03-16T20:58:30.253Z,5.19
2024-03-16T21:01:30.257Z,5.19
2024-03-16T21:04:30.254Z,5.17
2024-03-16T21:07:30.273Z,5.19
2024-03-16T21:10:30.266Z,5.19
2024-03-16T21:13:30.278Z,5.19
2024-03-16T21:16:30.284Z,5.16
2024-03-16T21:19:30.273Z,5.18
2024-03-16T21:22:30.289Z,5.16
2024-03-16T21:25:30.303Z,5.15
2024-03-16T21:28:30.289Z,5.18
2024-03-16T21:31:30.301Z,5.19
2024-03-16T21:34:30.302Z,5.21
2024-03-16T21:37:30.322Z,5.19
2024-03-16T21:40:30.307Z,5.22
2024-03-16T21:43:30.306Z,5.2
2024-03-16T21:46:30.311Z,5.21
2024-03-16T21:49:30.312Z,5.2
2024-03-16T21:52:30.318Z,5.24
2024-03-16T21:55:30.325Z,5.21
2024-03-16T21:58:30.314Z,5.27
2024-03-16T22:01:30.316Z,5.27
2024-03-16T22:04:30.414Z,5.29
2024-03-16T22:07:30.336Z,5.3
2024-03-16T22:10:30.323Z,5.3
2024-03-16T22:13:30.335Z,5.29
2024-03-16T22:16:30.339Z,5.29
2024-03-16T22:19:30.334Z,5.26
2024-03-16T22:22:30.347Z,5.26
2024-03-16T22:25:30.344Z,5.23
2024-03-16T22:28:30.336Z,5.21
2024-03-16T22:31:30.341Z,5.21
2024-03-16T22:34:30.363Z,5.22
2024-03-16T22:37:30.356Z,5.2
2024-03-16T22:40:30.372Z,5.17
2024-03-16T22:43:30.372Z,5.17
2024-03-16T22:46:30.357Z,5.14
2024-03-16T22:49:30.363Z,5.16
2024-03-16T22:52:30.440Z,5.15
2024-03-16T22:55:30.385Z,5.2
2024-03-16T22:58:30.381Z,5.16
2024-03-16T23:01:30.391Z,5.17
2024-03-16T23:04:30.401Z,5.16
2024-03-16T23:07:30.426Z,5.16
2024-03-16T23:10:30.418Z,5.17
2024-03-16T23:13:30.426Z,5.17
2024-03-16T23:16:30.434Z,5.15
2024-03-16T23:19:30.479Z,5.14
2024-03-16T23:22:30.460Z,5.14
2024-03-16T23:25:30.450Z,5.13
2024-03-16T23:28:30.460Z,5.15
2024-03-16T23:31:30.469Z,5.15
2024-03-16T23:34:30.470Z,5.15
2024-03-16T23:37:30.491Z,5.11
2024-03-16T23:40:30.503Z,5.09
2024-03-16T23:43:30.501Z,5.09
2024-03-16T23:46:30.503Z,5.06
2024-03-16T23:49:30.512Z,5.04
2024-03-16T23:52:30.538Z,5.05
2024-03-16T23:55:30.543Z,5.05
2024-03-16T23:58:30.538Z,5.04
